createdAt,value
2022-10-22T00:03:47.893Z,98822.38
2022-10-22T00:08:50.709Z,98827.75
2022-10-22T00:13:54.904Z,98828.78
2022-10-22T00:18:57.598Z,98829.59
2022-10-22T00:24:00.393Z,98833.53
2022-10-22T00:29:04.475Z,98836.00
2022-10-22T00:34:07.188Z,98832.50
2022-10-22T00:39:09.977Z,98831.69
2022-10-22T00:44:45.879Z,98833.31
2022-10-22T00:49:49.967Z,98834.75
2022-10-22T00:54:53.101Z,98837.03
2022-10-22T00:59:56.973Z,98835.41
2022-10-22T01:05:01.038Z,98830.03
2022-10-22T01:10:09.823Z,98824.88
2022-10-22T01:15:19.332Z,98827.38
2022-10-22T01:20:40.417Z,98822.81
2022-10-22T01:25:49.373Z,98816.03
2022-10-22T01:30:54.936Z,98815.19
2022-10-22T01:35:59.974Z,98812.72
2022-10-22T01:41:02.942Z,98795.59
2022-10-22T01:46:07.626Z,98798.28
2022-10-22T01:51:25.586Z,98796.63
2022-10-22T01:56:41.191Z,98791.25
2022-10-22T02:01:50.404Z,98800.34
2022-10-22T02:06:56.168Z,98802.44
2022-10-22T02:12:00.287Z,98800.56
2022-10-22T02:17:05.008Z,98797.25
2022-10-22T02:22:08.421Z,98807.78
2022-10-22T02:27:18.276Z,98801.81
2022-10-22T02:32:27.297Z,98809.88
2022-10-22T02:37:30.227Z,98812.78
2022-10-22T02:42:33.147Z,98810.09
2022-10-22T02:47:37.174Z,98814.63
2022-10-22T02:52:40.608Z,98821.03
2022-10-22T02:57:43.676Z,98819.16
2022-10-22T03:02:47.867Z,98823.72
2022-10-22T03:07:50.592Z,98819.41
2022-10-22T03:12:53.285Z,98820.41
2022-10-22T03:17:57.312Z,98815.50
2022-10-22T03:23:00.140Z,98817.34
2022-10-22T03:28:05.132Z,98817.34
2022-10-22T03:33:09.157Z,98820.25
2022-10-22T03:38:11.990Z,98831.41
2022-10-22T03:43:14.875Z,98833.03
2022-10-22T03:48:18.927Z,98829.78
2022-10-22T03:53:21.660Z,98827.28
2022-10-22T03:58:24.362Z,98834.53
2022-10-22T04:03:28.376Z,98846.88
2022-10-22T04:08:31.100Z,98845.88
2022-10-22T04:13:33.902Z,98858.66
2022-10-22T04:18:38.444Z,98851.63
2022-10-22T04:23:45.819Z,98860.72
2022-10-22T04:28:49.544Z,98862.59
2022-10-22T04:33:55.513Z,98868.16
2022-10-22T04:39:00.460Z,98868.59
2022-10-22T04:44:03.830Z,98872.72
2022-10-22T04:49:07.986Z,98877.88
2022-10-22T04:54:10.644Z,98879.75
2022-10-22T04:59:13.794Z,98885.31
2022-10-22T05:04:19.629Z,98891.28
2022-10-22T05:09:22.598Z,98891.72
2022-10-22T05:14:26.122Z,98895.00
2022-10-22T05:19:33.289Z,98903.47
2022-10-22T05:24:37.083Z,98896.66
2022-10-22T05:29:39.765Z,98901.03
2022-10-22T05:34:43.751Z,98906.59
2022-10-22T05:39:46.395Z,98912.38
2022-10-22T05:44:49.523Z,98916.06
2022-10-22T05:49:53.548Z,98922.06
2022-10-22T05:54:56.301Z,98933.00
2022-10-22T05:59:59.030Z,98928.91
2022-10-22T06:05:03.055Z,98939.63
2022-10-22T06:10:07.406Z,98941.69
2022-10-22T06:15:15.590Z,98959.41
2022-10-22T06:20:19.980Z,98956.53
2022-10-22T06:25:22.637Z,98970.75
2022-10-22T06:30:25.302Z,98972.41
2022-10-22T06:35:29.336Z,98984.38
2022-10-22T06:40:32.111Z,98987.44
2022-10-22T06:45:34.816Z,99002.72
2022-10-22T06:50:38.934Z,99008.47
2022-10-22T06:55:41.697Z,99016.72
2022-10-22T07:00:44.396Z,99023.91
2022-10-22T07:05:48.413Z,99014.84
2022-10-22T07:10:51.049Z,99026.19
2022-10-22T07:15:54.919Z,99034.44
2022-10-22T07:20:59.614Z,99036.50
2022-10-22T07:26:03.117Z,99050.63
2022-10-22T07:31:05.888Z,99053.91
2022-10-22T07:36:17.178Z,99055.88
2022-10-22T07:41:19.871Z,99051.09
2022-10-22T07:46:22.604Z,99058.91
2022-10-22T07:51:27.081Z,99059.72
2022-10-22T07:56:29.799Z,99075.41
2022-10-22T08:01:32.564Z,99082.44
2022-10-22T08:06:37.051Z,99091.03
2022-10-22T08:11:39.829Z,99091.34
2022-10-22T08:16:42.508Z,99091.75
2022-10-22T08:21:46.853Z,99100.72
2022-10-22T08:26:49.837Z,99104.47
2022-10-22T08:31:52.494Z,99120.03
2022-10-22T08:36:56.597Z,99123.72
2022-10-22T08:42:05.790Z,99127.03
2022-10-22T08:47:22.658Z,99135.72
2022-10-22T08:52:27.303Z,99145.66
2022-10-22T08:57:40.432Z,99150.16
2022-10-22T09:02:50.982Z,99164.47
2022-10-22T09:07:56.267Z,99164.63
2022-10-22T09:12:58.963Z,99174.53
2022-10-22T09:18:11.669Z,99173.28
2022-10-22T09:23:26.403Z,99177.22
2022-10-22T09:28:29.079Z,99182.84
2022-10-22T09:33:32.835Z,99178.72
2022-10-22T09:38:43.485Z,99182.84
2022-10-22T09:43:48.039Z,99183.84
2022-10-22T09:48:53.340Z,99191.91
2022-10-22T09:53:59.304Z,99190.28
2022-10-22T09:59:02.251Z,99203.53
2022-10-22T10:04:09.691Z,99203.53
2022-10-22T10:09:18.628Z,99218.41
2022-10-22T10:14:23.866Z,99217.59
2022-10-22T10:19:40.654Z,99220.47
2022-10-22T10:25:01.799Z,99217.19
2022-10-22T10:30:07.363Z,99230.41
2022-10-22T10:35:21.527Z,99232.28
2022-10-22T10:40:46.415Z,99238.69
2022-10-22T10:45:58.703Z,99245.50
2022-10-22T10:51:07.965Z,99247.97
2022-10-22T10:56:21.087Z,99251.47
2022-10-22T11:01:31.179Z,99246.34
2022-10-22T11:06:34.784Z,99254.41
2022-10-22T11:11:41.961Z,99246.34
2022-10-22T11:16:47.873Z,99261.41
2022-10-22T11:21:53.417Z,99256.84
2022-10-22T11:27:04.191Z,99260.16
2022-10-22T11:32:08.036Z,99263.03
2022-10-22T11:37:12.879Z,99261.22
2022-10-22T11:42:21.355Z,99264.31
2022-10-22T11:47:26.923Z,99267.84
2022-10-22T11:52:41.652Z,99267.84
2022-10-22T11:57:45.913Z,99268.41
2022-10-22T12:03:03.677Z,99271.34
2022-10-22T12:08:23.317Z,99265.13
2022-10-22T12:13:29.261Z,99269.69
2022-10-22T12:18:36.701Z,99253.56
2022-10-22T12:23:39.484Z,99258.09
2022-10-22T12:28:43.645Z,99254.34
2022-10-22T12:33:46.399Z,99255.59
2022-10-22T12:38:49.245Z,99259.72
2022-10-22T12:44:00.085Z,99260.09
2022-10-22T12:49:04.521Z,99257.00
2022-10-22T12:54:09.832Z,99241.47
2022-10-22T12:59:18.445Z,99243.72
2022-10-22T13:04:33.323Z,99243.16
2022-10-22T13:09:39.364Z,99234.03
2022-10-22T13:14:44.531Z,99238.59
2022-10-22T13:19:50.047Z,99241.28
2022-10-22T13:24:52.885Z,99240.22
2022-10-22T13:29:57.826Z,99241.03
2022-10-22T13:35:01.326Z,99248.53
2022-10-22T13:40:12.412Z,99242.72
2022-10-22T13:45:16.802Z,99247.47
2022-10-22T13:50:21.085Z,99253.06
2022-10-22T13:55:25.966Z,99251.78
2022-10-22T14:00:30.271Z,99258.84
2022-10-22T14:05:33.464Z,99249.72
2022-10-22T14:10:36.203Z,99250.97
2022-10-22T14:15:41.011Z,99258.81
2022-10-22T14:20:43.962Z,99262.94
2022-10-22T14:25:46.856Z,99251.78
2022-10-22T14:30:51.350Z,99254.84
2022-10-22T14:35:54.420Z,99252.16
2022-10-22T14:40:57.644Z,99254.84
2022-10-22T14:46:01.744Z,99255.91
2022-10-22T14:51:05.415Z,99254.25
2022-10-22T14:56:08.291Z,99253.84
2022-10-22T15:01:12.316Z,99258.63
2022-10-22T15:06:15.101Z,99267.94
2022-10-22T15:11:18.068Z,99257.41
2022-10-22T15:16:22.167Z,99263.59
2022-10-22T15:21:24.895Z,99267.34
2022-10-22T15:26:27.834Z,99271.06
2022-10-22T15:31:46.809Z,99271.47
2022-10-22T15:36:49.531Z,99273.97
2022-10-22T15:41:52.642Z,99266.34
2022-10-22T15:46:57.158Z,99271.72
2022-10-22T15:51:59.894Z,99275.91
2022-10-22T15:57:05.737Z,99277.13
2022-10-22T16:02:11.011Z,99268.88
2022-10-22T16:07:13.762Z,99283.34
2022-10-22T16:12:17.316Z,99288.72
2022-10-22T16:17:21.467Z,99283.56
2022-10-22T16:22:24.151Z,99287.50
2022-10-22T16:27:26.875Z,99289.38
2022-10-22T16:32:30.891Z,99286.69
2022-10-22T16:37:33.619Z,99285.81
2022-10-22T16:42:36.247Z,99286.25
2022-10-22T16:47:42.815Z,99281.31
2022-10-22T16:52:45.653Z,99286.06
2022-10-22T16:57:51.559Z,99290.81
2022-10-22T17:02:55.645Z,99294.53
2022-10-22T17:07:58.375Z,99309.00
2022-10-22T17:13:01.016Z,99308.41
2022-10-22T17:18:05.329Z,99312.94
2022-10-22T17:23:08.112Z,99314.81
2022-10-22T17:28:10.976Z,99312.50
2022-10-22T17:33:15.168Z,99311.28
2022-10-22T17:38:17.842Z,99317.50
2022-10-22T17:43:20.602Z,99320.56
2022-10-22T17:48:24.629Z,99325.34
2022-10-22T17:53:27.563Z,99331.75
2022-10-22T17:58:31.001Z,99331.75
2022-10-22T18:03:35.140Z,99327.41
2022-10-22T18:08:37.954Z,99328.44
2022-10-22T18:13:40.791Z,99334.22
2022-10-22T18:18:46.973Z,99342.28
2022-10-22T18:23:49.628Z,99338.78
2022-10-22T18:28:52.423Z,99331.72
2022-10-22T18:33:57.967Z,99332.97
2022-10-22T18:39:01.875Z,99328.41
2022-10-22T18:44:05.900Z,99323.88
2022-10-22T18:49:11.634Z,99325.34
2022-10-22T18:54:29.154Z,99334.66
2022-10-22T18:59:32.313Z,99329.88
2022-10-22T19:11:07.466Z,99326.78
2022-10-22T19:16:14.025Z,99320.78
2022-10-22T19:21:16.658Z,99310.25
2022-10-22T19:26:21.377Z,99312.06
2022-10-22T19:31:26.783Z,99296.19
2022-10-22T19:36:30.442Z,99302.19
2022-10-22T19:41:33.557Z,99319.94
2022-10-22T19:46:37.548Z,99314.38
2022-10-22T19:51:40.173Z,99315.41
2022-10-22T19:56:42.742Z,99326.75
2022-10-22T20:01:46.762Z,99312.50
2022-10-22T20:06:49.398Z,99318.28
2022-10-22T20:11:52.000Z,99321.78
2022-10-22T20:16:56.018Z,99336.25
2022-10-22T20:27:02.307Z,99329.22
2022-10-22T20:32:08.732Z,99331.72
2022-10-22T20:37:11.586Z,99331.31
2022-10-22T20:42:15.335Z,99327.38
2022-10-22T20:47:19.285Z,99316.03
2022-10-22T20:52:21.905Z,99324.28
2022-10-22T20:57:24.653Z,99322.63
2022-10-22T21:02:29.069Z,99313.75
2022-10-22T21:07:31.705Z,99322.19
2022-10-22T21:12:34.338Z,99338.31
2022-10-22T21:17:38.276Z,99329.63
2022-10-22T21:22:41.306Z,99330.88
2022-10-22T21:27:44.193Z,99338.94
2022-10-22T21:32:48.141Z,99336.66
2022-10-22T21:37:50.734Z,99333.78
2022-10-22T21:42:53.359Z,99335.84
2022-10-22T21:47:57.785Z,99320.56
2022-10-22T21:53:00.421Z,99314.78
2022-10-22T21:58:03.049Z,99316.41
2022-10-22T22:03:08.777Z,99323.66
2022-10-22T22:08:11.375Z,99316.84
2022-10-22T22:13:13.969Z,99316.63
2022-10-22T22:18:17.983Z,99316.84
2022-10-22T22:23:20.651Z,99311.03
2022-10-22T22:28:23.213Z,99301.16
2022-10-22T22:33:27.152Z,99305.66
2022-10-22T22:38:29.743Z,99303.59
2022-10-22T22:43:32.401Z,99301.34
2022-10-22T22:48:36.458Z,99297.03
2022-10-22T22:53:39.351Z,99296.38
2022-10-22T22:58:42.661Z,99289.38
2022-10-22T23:03:47.893Z,99293.50
2022-10-22T23:08:51.903Z,99297.00
2022-10-22T23:13:56.355Z,99294.13
2022-10-22T23:19:01.078Z,99280.69
2022-10-22T23:24:06.111Z,99290.00
2022-10-22T23:29:11.608Z,99285.44
2022-10-22T23:39:28.817Z,99289.75
2022-10-22T23:44:31.467Z,99284.63
2022-10-22T23:49:35.526Z,99272.44
2022-10-22T23:54:38.160Z,99269.53
2022-10-22T23:59:40.792Z,99281.13
